Caribbean Galaxy — 3EZV4 — position and weather

sailwx.info

Track history (hours):
 
Tides and Currents Weather Stations Pressure Air Temp Water Temp Dewpoint Dewpoint Depression Visibility Wind Speed Wind Dir Waves Ship Positions

Caribbean Galaxy

Last reported at 2014-Sep-17 01:27 UTC. Time now 2014-Sep-17 09:35 UTC.
Position N 01°07' E 103°37'.

Length 246 m; draft 9.7 m.

Type: Ship (hazmat cat A). MMSI: 357449000.

Date/timePositionNaut miles runAvg speedWind from/ knotsBaromVisibWave heightAir tempDewpointWater temp
2014-Sep-17 01:27N 01°07' E 103°37'0 0.2
2014-Sep-17 00:33N 01°07' E 103°37'0 0.4
2014-Sep-16 23:33N 01°07' E 103°36'1 1.2
2014-Sep-16 22:23N 01°09' E 103°37'0 0.0
2014-Sep-16 21:28N 01°09' E 103°37'0 0.1
2014-Sep-16 20:29N 01°09' E 103°37'0 0.1
2014-Sep-16 19:31N 01°09' E 103°37'0 0.0
2014-Sep-16 18:28N 01°09' E 103°37'0 0.1
2014-Sep-16 17:31N 01°09' E 103°37'1 0.7
2014-Sep-16 16:33N 01°09' E 103°37'4 4.1
2014-Sep-16 15:33N 01°10' E 103°41'6 5.6
2014-Sep-16 14:33N 01°10' E 103°47'10 9.6
2014-Sep-16 13:33N 01°14' E 103°55'1110.7
2014-Sep-16 12:33N 01°16' E 104°06'  
Track history (hours):
 
Tides and Currents Weather Stations Pressure Air Temp Water Temp Dewpoint Dewpoint Depression Visibility Wind Speed Wind Dir Waves Ship Positions

Caribbean Galaxy

Last reported at 2014-Sep-17 01:27 UTC. Time now 2014-Sep-17 09:35 UTC.
Position N 01°07' E 103°37'.

Length 246 m; draft 9.7 m.

Type: Ship (hazmat cat A). MMSI: 357449000.

Date/timePositionNaut miles runAvg speedWind from/ knotsBaromVisibWave heightAir tempDewpointWater temp
2014-Sep-17 01:27N 01°07' E 103°37'0 0.2
2014-Sep-17 00:33N 01°07' E 103°37'0 0.4
2014-Sep-16 23:33N 01°07' E 103°36'1 1.2
2014-Sep-16 22:23N 01°09' E 103°37'0 0.0
2014-Sep-16 21:28N 01°09' E 103°37'0 0.1
2014-Sep-16 20:29N 01°09' E 103°37'0 0.1
2014-Sep-16 19:31N 01°09' E 103°37'0 0.0
2014-Sep-16 18:28N 01°09' E 103°37'0 0.1
2014-Sep-16 17:31N 01°09' E 103°37'1 0.7
2014-Sep-16 16:33N 01°09' E 103°37'4 4.1
2014-Sep-16 15:33N 01°10' E 103°41'6 5.6
2014-Sep-16 14:33N 01°10' E 103°47'10 9.6
2014-Sep-16 13:33N 01°14' E 103°55'1110.7
2014-Sep-16 12:33N 01°16' E 104°06'  

Dump ship's entire track history